aviador You're here:

SCCH Decoded Metar

CHILLAN in CHILE
Report Time2017-09-24 12:00:00
UTC Time2017-09-24 12:19:44
Flight Rules ifr IFR
Wind200° at 04 kt
W.Decomp.*RWY 22: 3.6 kt HW 1.7 kt LCW
W.Rank200° ranks 3
Current wind is below 200° avg. (7.0)
Visibility2000 m
Phenomena:Patches Fog
Clouds:N/A
CeilingNone
Temp07°C (ISA -7)
Dew Point07°C (100% RH)
AAT4.9°C
QNH1021 hPa
Density Alt-495 ft
Elevation486 ft
Report Wrong Elevation
Raw Report
SCCH 241200Z 20004KT 9999 2000NE BCFG NSC 07/07 Q1021=

Extra information for SCCH:More info

Metar Taf Metar & Taf Last 4 Metars F.Rules Stats Wind Profile Meteogram Temp Stats Airport Information Weather charts Add Link Nearby VenuesMetar ALERT Operation Metar Decoded Social comments